Terminal Aerodrome Forecast
Issued by NWS

Home | Current Version | Previous Version | Graphics & Text | Print | Product List | Glossary On
Versions: 1 2 3 4 5 6 7 8 9 10 11 12 13 14 15 16 17
000
FTUS43 KMPX 062336
TAFRWF
TAF
KRWF 062336Z 0700/0724 34011G18KT 5SM FU SCT040
     FM070400 34007KT P6SM SKC
     FM071500 03005KT 6SM FU FEW040
     FM072100 VRB04KT 6SM FU FEW040=

USA.gov is the U.S. government's official web portal to all federal, state and local government web resources and services.